KBNA/BNA METAR and TAF weather

Enter ICAO airport designator
Station Type Date Time Source
KBNA METAR 2020/07/15 03:53 UTC NOAA

KBNA 150353Z 00000KT 10SM FEW065 25/19 A3004 RMK AO2 SLP166 T02500194 $


Station Type Date Time Source
KBNA Decoded METAR 2020/07/15 03:53 UTC NOAA

NASHVILLE INTERNATIONAL AIRPORT, TN, United States (KBNA) 36-07N 086-41W 210M
Jul 14, 2020 - 11:53 PM EDT / 2020.07.15 0353 UTC
Wind: Calm:0
Visibility: 10 mile(s):0
Sky conditions: mostly clear
Temperature: 77.0 F (25.0 C)
Dew Point: 66.9 F (19.4 C)
Relative Humidity: 71%
Pressure (altimeter): 30.04 in. Hg (1017 hPa)
ob: KBNA 150353Z 00000KT 10SM FEW065 25/19 A3004 RMK AO2 SLP166 T02500194
cycle: 4

Station Type Date Time Source
KBNA TAF 2020/07/14 18:33 UTC NOAA

TAF KBNA 141730Z 1418/1518 16007KT P6SM SCT045 SCT060
FM142300 04004KT P6SM FEW200

Example: see airport list